Flight Track Log - Related Links

Times and Time Zones

All times are in EDT time to prevent confusion due to time zone crossing. See the SKW2632 flight status page for this flight to view local times or setup timezone preferences in your user account.

Time Position Orientation Groundspeed Altitude Reporting Facility
EDT Latitude Longitude Course Direction KTS MPH feet Rate Location/Type
Mon 07:13:11 PM 33.9339 -118.4383 233° Southwest 191 220 1,600  Level Los Angeles Center
Mon 07:14:13 PM 33.8897 -118.5097 233° Southwest 235 270 4,600 2,323 Climbing Los Angeles Center
Mon 07:15:15 PM 33.8169 -118.5181 185° South 272 313 6,400 1,984 Climbing Los Angeles Center
Mon 07:16:17 PM 33.7369 -118.5211 182° South 291 335 8,700 1,935 Climbing Los Angeles Center
Mon 07:17:19 PM 33.6656 -118.4767 153° Southeast 302 348 10,400 1,317 Climbing Los Angeles Center
Mon 07:18:20 PM 33.6164 -118.3903 124° Southeast 331 381 11,400 1,268 Climbing Los Angeles Center
Mon 07:19:22 PM 33.6158 -118.2519 90° East 350 403 13,000 1,548 Climbing Los Angeles Center
Mon 07:20:24 PM 33.6192 -118.1325 88° East 361 415 14,600 1,403 Climbing Los Angeles Center
Mon 07:21:26 PM 33.6194 -118.0089 90° East 371 427 15,900 1,113 Climbing Los Angeles Center
Mon 07:22:28 PM 33.6203 -117.8800 90° East 385 443 16,900 1,065 Climbing Los Angeles Center
Mon 07:23:30 PM 33.6233 -117.7489 88° East 393 452 18,100 1,171 Climbing Los Angeles Center
Mon 07:24:31 PM 33.6253 -117.5869 89° East 404 465 19,300 1,171 Climbing Los Angeles Center
Mon 07:25:33 PM 33.6264 -117.4489 89° East 412 474 20,500 1,065 Climbing Los Angeles Center
Mon 07:26:35 PM 33.6283 -117.3083 89° East 418 481 21,500 871 Climbing Los Angeles Center
Mon 07:27:37 PM 33.6281 -117.1686 90° East 422 486 22,300 823 Climbing Los Angeles Center
Mon 07:28:39 PM 33.6264 -117.0256 91° East 428 493 23,200 732 Climbing Los Angeles Center
Mon 07:29:40 PM 33.6275 -116.8806 89° East 435 501 23,800 634 Climbing Los Angeles Center
Mon 07:30:42 PM 33.6281 -116.7269 90° East 440 506 24,500 629 Climbing Los Angeles Center
Mon 07:31:44 PM 33.6278 -116.5786 90° East 443 510 25,100 629 Climbing Los Angeles Center
Mon 07:32:46 PM 33.6286 -116.3975 90° East 450 518 25,800 629 Climbing Los Angeles Center
Mon 07:33:48 PM 33.6283 -116.2467 90° East 450 518 26,400 683 Climbing Los Angeles Center
Mon 07:34:49 PM 33.6258 -116.0933 91° East 457 526 27,200 732 Climbing Los Angeles Center
Mon 07:35:51 PM 33.6222 -115.9439 92° East 449 517 27,900 629 Climbing Los Angeles Center
Mon 07:36:53 PM 33.6200 -115.7939 91° East 446 513 28,500 581 Climbing Los Angeles Center
Mon 07:37:55 PM 33.6161 -115.6417 92° East 453 521 29,100 581 Climbing Los Angeles Center
Mon 07:38:57 PM 33.6119 -115.4878 92° East 462 532 29,700 585 Climbing Los Angeles Center
Mon 07:39:58 PM 33.6092 -115.3356 91° East 459 528 30,300 683 Climbing Los Angeles Center
Mon 07:41:00 PM 33.6050 -115.1519 92° East 459 528 31,100 629 Climbing Los Angeles Center
Mon 07:42:02 PM 33.5994 -114.9994 92° East 458 527 31,600 484 Climbing Los Angeles Center
Mon 07:43:04 PM 33.5961 -114.8456 91° East 462 532 32,100 97 Climbing Los Angeles Center
Mon 07:44:06 PM 33.5811 -114.6908 97° East 466 536 31,800 -1,024 Descending Los Angeles Center
Mon 07:45:07 PM 33.5483 -114.5272 103° East 501 577 30,000 -1,951 Descending Los Angeles Center
Mon 07:46:09 PM 33.5150 -114.3600 103° East 515 593 27,800 -2,308 Descending Los Angeles Center
Mon 07:46:51 PM 33.4956 -114.2400 101° East 506 582 26,000 -1,689 Descending Albuquerque Center
Mon 07:47:52 PM 33.4647 -114.0858 103° East 484 557 24,900 -836 Descending Albuquerque Center
Mon 07:48:53 PM 33.4344 -113.9450 104° East 447 514 24,300 -732 Descending Albuquerque Center
Mon 07:49:55 PM 33.4081 -113.8050 103° East 434 499 23,400 -1,122 Descending Albuquerque Center
Mon 07:50:56 PM 33.3792 -113.6639 104° East 435 501 22,000 -1,475 Descending Albuquerque Center
Mon 07:51:57 PM 33.3453 -113.4989 104° East 429 494 20,400 -1,512 Descending Albuquerque Center
Mon 07:52:59 PM 33.3181 -113.3675 104° East 414 476 18,900 -1,512 Descending Albuquerque Center
Mon 07:54:00 PM 33.2917 -113.2397 104° East 401 461 17,300 -1,426 Descending Albuquerque Center
Mon 07:55:01 PM 33.2750 -113.1161 99° East 383 441 16,000 -1,122 Descending Albuquerque Center
Mon 07:56:03 PM 33.2761 -112.9925 89° East 373 429 15,000 -488 Descending Albuquerque Center
Mon 07:57:04 PM 33.2794 -112.8739 88° East 362 417 15,000  Level Albuquerque Center
Mon 07:58:05 PM 33.2817 -112.7578 89° East 353 406 15,000  Level Albuquerque Center
Mon 07:59:07 PM 33.2831 -112.6467 89° East 340 391 15,000 -823 Level Albuquerque Center
Mon 08:00:09 PM 33.2867 -112.5306 88° East 337 388 13,300 -1,645 Descending Albuquerque Center
Mon 08:01:11 PM 33.2903 -112.4236 88° East 326 375 11,600 -1,073 Descending Albuquerque Center
Mon 08:02:12 PM 33.2931 -112.3231 88° East 307 353 11,100 -829 Descending Albuquerque Center
Mon 08:03:14 PM 33.3022 -112.2036 85° East 303 349 9,900 -1,024 Descending Albuquerque Center
Mon 08:04:15 PM 33.3103 -112.1061 84° East 296 341 9,000 -836 Descending Albuquerque Center
Mon 08:05:16 PM 33.3289 -112.0239 75° East 259 298 8,200 -976 Descending Albuquerque Center
Mon 08:06:18 PM 33.3458 -111.9425 76° East 253 291 7,000 -1,073 Descending Albuquerque Center
Mon 08:07:19 PM 33.3444 -111.8608 91° East 246 283 6,000 -1,122 Descending Albuquerque Center
Mon 08:08:21 PM 33.3747 -111.8028 58° Northeast 240 276 4,700 -1,171 Descending Albuquerque Center
Mon 08:09:22 PM 33.4267 -111.8347 333° Northwest 234 269 3,600 -927 Descending Albuquerque Center
Mon 08:10:24 PM 33.4281 -111.9044 271° West 203 234 2,800 -857 Descending Albuquerque Center
Mon 08:10:39 PM 33.4333 -111.9333 282° West 174 200 2,500 -780 Descending Phoenix TRACON
Mon 08:12:27 PM 33.4286 -112.0186 266° West 150 173 1,200 -722 Descending Albuquerque Center

Login

Don't have an account? Register now (free) for customized features, flight alerts, and more!